This is the latest recevied weather packets stored in our database for station/object N0QV. If no packets are shown the sender has not sent any weather packets the latest 1 day(s).
| Time | Temp. | Humidity | Pressure | Rain* | Wind** | Luminosity | Snow |
|---|---|---|---|---|---|---|---|
| 1778028771 | 9.44° C | 37% | 1012.1 hPa | 0 mm | - | 15 W/m² | - |
| 1778028467 | 9.44° C | 36% | 1011.9 hPa | 0 mm | - | 15 W/m² | - |
| 1778028165 | 10° C | 37% | 1012 hPa | 0 mm | - | 17 W/m² | - |
| 1778027860 | 10° C | 37% | 1012 hPa | 0 mm | - | 17 W/m² | - |
| 1778027557 | 10° C | 36% | 1011.9 hPa | 0 mm | - | 18 W/m² | - |
| 1778027253 | 10° C | 37% | 1011.6 hPa | 0 mm | - | 23 W/m² | - |
| 1778026949 | 10° C | 37% | 1011.9 hPa | 0 mm | - | 31 W/m² | - |
| 1778026040 | 10° C | 34% | 1011.5 hPa | 0 mm | - | 55 W/m² | - |
| 1778024829 | 10.56° C | 35% | 1011.3 hPa | 0 mm | - | 63 W/m² | - |
| 1778023618 | 10.56° C | 34% | 1011.3 hPa | 0 mm | - | 67 W/m² | - |
| 1778022711 | 10.56° C | 36% | 1011.2 hPa | 0 mm | - | 71 W/m² | - |
| 1778022105 | 10.56° C | 34% | 1011.2 hPa | 0 mm | - | 95 W/m² | - |
| 1778021194 | 11.11° C | 34% | 1011.3 hPa | 0 mm | - | 105 W/m² | - |
| 1778020892 | 11.11° C | 34% | 1011.1 hPa | 0 mm | - | 139 W/m² | - |
| 1778016954 | 11.11° C | 34% | 1011.5 hPa | 0 mm | - | 141 W/m² | - |
| 1778016650 | 11.11° C | 34% | 1011.4 hPa | 0 mm | - | 128 W/m² | - |
| 1778015741 | 12.22° C | 33% | 1011.4 hPa | 0 mm | - | 327 W/m² | - |
| 1778013924 | 11.67° C | 36% | 1011.6 hPa | 0 mm | - | 339 W/m² | - |
| 1778013621 | 11.67° C | 35% | 1011.9 hPa | 0 mm | - | 314 W/m² | - |
| 1778012104 | 12.78° C | 33% | 1011.7 hPa | 0 mm | - | 451 W/m² | - |
| 1778010892 | 11.67° C | 34% | 1011.9 hPa | 0 mm | - | 297 W/m² | - |
| 1778010589 | 11.67° C | 37% | 1011.9 hPa | 0 mm | - | 279 W/m² | - |
| 1778008777 | 11.67° C | 37% | 1012.1 hPa | 0 mm | - | 353 W/m² | - |
| 1778008476 | 11.67° C | 36% | 1012 hPa | 0 mm | - | 415 W/m² | - |
| 1778007867 | 10.56° C | 36% | 1012.2 hPa | 0 mm | - | 306 W/m² | - |
* Rain latest hour (hover to see other rain measurements)
** Current wind speed in m/s (hover to see current wind gust speed)